Time;durP1;ratioP1;P1;durP2;ratioP2;P2;SDS_P1;SDS_P2;PMS_P1;PMS_P2;Temp;Humidity;BMP_temperature;BMP_pressure;BME280_temperature;BME280_humidity;BME280_pressure;Samples;Min_cycle;Max_cycle;Signal;HPM_P1;HPM_P2
2022/01/07 00:06:49;;;;;;;;;;;-0.30;99.90;;;;;;5175506;27;19925;-81
2022/01/07 00:09:16;;;;;;;;;;;-0.30;99.90;;;;;;5143722;27;19923;-80
2022/01/07 00:11:43;;;;;;;;;;;-0.30;99.90;;;;;;5120837;28;19932;-82
2022/01/07 00:14:09;;;;;;;;;;;-0.30;99.90;;;;;;5095965;28;19924;-79
2022/01/07 00:16:36;;;;;;;;;;;-0.30;99.90;;;;;;5092829;28;19924;-83
2022/01/07 00:19:03;;;;;;;;;;;-0.30;99.90;;;;;;5011077;28;19927;-81
2022/01/07 00:21:29;;;;;;;;;;;-0.30;99.90;;;;;;4780809;29;19956;-80
2022/01/07 00:29:01;;;;;;;;;;;-0.30;99.90;;;;;;5184380;27;19941;-85
2022/01/07 00:31:28;;;;;;;;;;;-0.30;99.90;;;;;;5137155;27;19946;-79
2022/01/07 00:33:54;;;;;;;;;;;-0.40;99.90;;;;;;5117164;27;19958;-84
2022/01/07 00:36:21;;;;;;;;;;;-0.30;99.90;;;;;;5099019;28;19947;-80
2022/01/07 00:38:47;;;;;;;;;;;-0.30;99.90;;;;;;4982511;28;19926;-82
2022/01/07 00:41:14;;;;;;;;;;;-0.30;99.90;;;;;;4846142;28;19938;-81
2022/01/07 00:43:41;;;;;;;;;;;-0.40;99.90;;;;;;4569423;30;19943;-83
2022/01/07 00:51:13;;;;;;;;;;;-0.30;99.90;;;;;;5173839;27;19925;-82
2022/01/07 00:53:41;;;;;;;;;;;-0.30;99.90;;;;;;5111204;28;19931;-81
2022/01/07 00:56:08;;;;;;;;;;;-0.30;99.90;;;;;;5067547;28;19998;-80
2022/01/07 00:58:34;;;;;;;;;;;-0.30;99.90;;;;;;5036612;28;19933;-82
2022/01/07 01:01:01;;;;;;;;;;;-0.20;99.90;;;;;;4955952;28;19928;-83
2022/01/07 01:03:27;;;;;;;;;;;-0.30;99.90;;;;;;4773801;29;19938;-80
2022/01/07 01:05:57;;;;;;;;;;;-0.30;99.90;;;;;;4593839;30;19935;-80
2022/01/07 01:13:31;;;;;;;;;;;-0.20;99.90;;;;;;5154431;27;19926;-80
2022/01/07 01:15:58;;;;;;;;;;;-0.30;99.90;;;;;;5095412;27;19924;-80
2022/01/07 01:18:25;;;;;;;;;;;-0.30;99.90;;;;;;5115767;27;19923;-83
2022/01/07 01:20:52;;;;;;;;;;;-0.30;99.90;;;;;;5091742;28;19928;-80
2022/01/07 01:23:19;;;;;;;;;;;-0.30;99.90;;;;;;4992314;28;19931;-80
2022/01/07 01:25:45;;;;;;;;;;;-0.30;99.90;;;;;;4852956;29;19930;-83
2022/01/07 01:28:12;;;;;;;;;;;-0.30;99.90;;;;;;4763826;29;19932;-83
2022/01/07 01:35:43;;;;;;;;;;;-0.40;99.90;;;;;;5173833;27;19941;-81
2022/01/07 01:38:10;;;;;;;;;;;-0.40;99.90;;;;;;5131580;27;19932;-82
2022/01/07 01:40:36;;;;;;;;;;;-0.40;99.90;;;;;;5110327;27;19932;-82
2022/01/07 01:43:03;;;;;;;;;;;-0.40;99.90;;;;;;5057199;28;19924;-84
2022/01/07 01:45:30;;;;;;;;;;;-0.40;99.90;;;;;;4998062;28;19915;-82
2022/01/07 01:47:56;;;;;;;;;;;-0.40;99.90;;;;;;4899134;29;19935;-80
2022/01/07 01:50:23;;;;;;;;;;;-0.40;99.90;;;;;;4726774;29;19933;-80
2022/01/07 01:57:56;;;;;;;;;;;-0.40;99.90;;;;;;5178496;27;19930;-82
2022/01/07 02:00:24;;;;;;;;;;;-0.40;99.90;;;;;;5137807;27;19923;-84
2022/01/07 02:02:51;;;;;;;;;;;-0.40;99.90;;;;;;5120317;27;19924;-80
2022/01/07 02:05:17;;;;;;;;;;;-0.40;99.90;;;;;;5090767;28;19928;-79
2022/01/07 02:07:44;;;;;;;;;;;-0.50;99.90;;;;;;5008071;28;19931;-83
2022/01/07 02:10:12;;;;;;;;;;;-0.60;99.90;;;;;;4930537;28;19928;-82
2022/01/07 02:12:38;;;;;;;;;;;-0.50;99.90;;;;;;4804143;29;19953;-80
2022/01/07 02:17:46;;;;;;;;;;;-0.60;99.90;;;;;;5173682;27;19926;-80
2022/01/07 02:20:14;;;;;;;;;;;-0.60;99.90;;;;;;5120618;27;19908;-83
2022/01/07 02:22:41;;;;;;;;;;;-0.70;99.90;;;;;;5101328;28;19931;-80
2022/01/07 02:25:08;;;;;;;;;;;-0.70;99.90;;;;;;5108272;28;19924;-81
2022/01/07 02:27:36;;;;;;;;;;;-0.70;99.90;;;;;;4985254;28;19936;-79
2022/01/07 02:30:04;;;;;;;;;;;-0.70;99.90;;;;;;4755594;29;19991;-80
2022/01/07 02:32:30;;;;;;;;;;;-0.60;99.90;;;;;;4505280;31;19936;-79
2022/01/07 02:40:03;;;;;;;;;;;-0.70;99.90;;;;;;5180991;27;19925;-80
2022/01/07 02:42:29;;;;;;;;;;;-0.60;99.90;;;;;;5132586;27;19934;-79
2022/01/07 02:44:56;;;;;;;;;;;-0.70;99.90;;;;;;5119991;27;19931;-82
2022/01/07 02:47:25;;;;;;;;;;;-0.60;99.90;;;;;;5109420;28;19960;-81
2022/01/07 02:49:51;;;;;;;;;;;-0.60;99.90;;;;;;5026570;28;19938;-82
2022/01/07 02:52:18;;;;;;;;;;;-0.70;99.90;;;;;;4871661;29;19950;-83
2022/01/07 02:54:44;;;;;;;;;;;-0.60;99.90;;;;;;4708363;29;19932;-82
2022/01/07 03:00:16;;;;;;;;;;;-0.60;99.90;;;;;;5174539;27;19926;-81
2022/01/07 03:02:43;;;;;;;;;;;-0.60;99.90;;;;;;5116148;27;19924;-83
2022/01/07 03:05:10;;;;;;;;;;;-0.60;99.90;;;;;;5119892;28;19931;-83
2022/01/07 03:07:38;;;;;;;;;;;-0.60;99.90;;;;;;5049368;28;19935;-81
2022/01/07 03:10:05;;;;;;;;;;;-0.60;99.90;;;;;;4961204;28;19935;-80
2022/01/07 03:12:32;;;;;;;;;;;-0.60;99.90;;;;;;4794333;29;19938;-81
2022/01/07 03:14:59;;;;;;;;;;;-0.60;99.90;;;;;;4579622;30;19935;-79
2022/01/07 03:22:26;;;;;;;;;;;-0.60;99.90;;;;;;5162952;27;19926;-83
2022/01/07 03:24:53;;;;;;;;;;;-0.60;99.90;;;;;;5116286;27;19924;-83
2022/01/07 03:27:19;;;;;;;;;;;-0.60;99.90;;;;;;5133043;27;19934;-82
2022/01/07 03:29:46;;;;;;;;;;;-0.60;99.90;;;;;;5095731;28;19915;-78
2022/01/07 03:32:12;;;;;;;;;;;-0.60;99.90;;;;;;5031281;28;19927;-79
2022/01/07 03:34:39;;;;;;;;;;;-0.60;99.90;;;;;;4857126;29;19937;-80
2022/01/07 03:37:05;;;;;;;;;;;-0.60;99.90;;;;;;4726500;29;19940;-80
2022/01/07 03:44:36;;;;;;;;;;;-0.60;99.90;;;;;;5173957;27;19925;-82
2022/01/07 03:47:03;;;;;;;;;;;-0.60;99.90;;;;;;5121084;27;19923;-79
2022/01/07 03:49:30;;;;;;;;;;;-0.60;99.90;;;;;;5117985;27;19935;-83
2022/01/07 03:51:56;;;;;;;;;;;-0.70;99.90;;;;;;5110658;28;19931;-80
2022/01/07 03:54:23;;;;;;;;;;;-0.60;99.90;;;;;;5019594;28;19926;-83
2022/01/07 03:56:49;;;;;;;;;;;-0.60;99.90;;;;;;4938809;28;19935;-80
2022/01/07 03:59:16;;;;;;;;;;;-0.60;99.90;;;;;;4752095;29;19939;-80
2022/01/07 04:06:49;;;;;;;;;;;-0.70;99.90;;;;;;5161180;27;19926;-79
2022/01/07 04:09:16;;;;;;;;;;;-0.60;99.90;;;;;;5137175;27;19923;-79
2022/01/07 04:11:42;;;;;;;;;;;-0.60;99.90;;;;;;5129466;28;19932;-78
2022/01/07 04:14:09;;;;;;;;;;;-0.60;99.90;;;;;;5092848;28;19932;-79
2022/01/07 04:16:35;;;;;;;;;;;-0.60;99.90;;;;;;4967603;28;19928;-80
2022/01/07 04:19:02;;;;;;;;;;;-0.60;99.90;;;;;;4861964;29;19941;-80
2022/01/07 04:21:28;;;;;;;;;;;-0.60;99.90;;;;;;4658497;29;19952;-80
2022/01/07 04:29:01;;;;;;;;;;;-0.60;99.90;;;;;;5174555;27;19930;-81
2022/01/07 04:31:28;;;;;;;;;;;-0.60;99.90;;;;;;5138646;27;19942;-79
2022/01/07 04:33:54;;;;;;;;;;;-0.60;99.90;;;;;;5126606;27;19931;-80
2022/01/07 04:36:21;;;;;;;;;;;-0.60;99.90;;;;;;5118077;28;19931;-79
2022/01/07 04:38:47;;;;;;;;;;;-0.50;99.90;;;;;;5075585;28;19925;-78
2022/01/07 04:41:14;;;;;;;;;;;-0.50;99.90;;;;;;4965058;28;19934;-83
2022/01/07 04:43:41;;;;;;;;;;;-0.50;99.90;;;;;;4789412;29;19932;-83
2022/01/07 04:46:08;;;;;;;;;;;-0.40;99.90;;;;;;4472182;30;19944;-81
2022/01/07 04:52:59;;;;;;;;;;;-0.40;99.90;;;;;;5160771;27;19929;-80
2022/01/07 04:55:26;;;;;;;;;;;-0.30;99.90;;;;;;5133424;27;19931;-82
2022/01/07 04:57:54;;;;;;;;;;;-0.30;99.90;;;;;;5115316;27;19943;-83
2022/01/07 05:00:21;;;;;;;;;;;-0.30;99.90;;;;;;5080716;28;19924;-83
2022/01/07 05:02:48;;;;;;;;;;;-0.30;99.90;;;;;;4959035;28;19930;-82
2022/01/07 05:05:15;;;;;;;;;;;-0.30;99.90;;;;;;4779968;29;19931;-83
2022/01/07 05:07:41;;;;;;;;;;;-0.30;99.90;;;;;;4615739;30;19946;-83
2022/01/07 05:15:13;;;;;;;;;;;-0.30;99.90;;;;;;5177258;27;19937;-87
2022/01/07 05:17:40;;;;;;;;;;;-0.30;99.90;;;;;;5124177;27;19923;-84
2022/01/07 05:20:07;;;;;;;;;;;-0.30;99.90;;;;;;5092463;28;19932;-81
2022/01/07 05:22:33;;;;;;;;;;;-0.30;99.90;;;;;;5048179;28;19925;-84
2022/01/07 05:25:00;;;;;;;;;;;-0.30;99.90;;;;;;5047300;28;19925;-81
2022/01/07 05:27:27;;;;;;;;;;;-0.30;99.90;;;;;;4892156;28;19930;-80
2022/01/07 05:29:53;;;;;;;;;;;-0.20;99.90;;;;;;4673162;30;19937;-83
2022/01/07 05:36:55;;;;;;;;;;;-0.20;99.90;;;;;;5173140;27;19925;-80
2022/01/07 05:39:22;;;;;;;;;;;-0.20;99.90;;;;;;5115443;28;19939;-80
2022/01/07 05:41:49;;;;;;;;;;;-0.20;99.90;;;;;;5072434;28;19933;-80
2022/01/07 05:44:15;;;;;;;;;;;-0.20;99.90;;;;;;5011253;28;19925;-83
2022/01/07 05:46:42;;;;;;;;;;;-0.10;99.90;;;;;;4968146;28;19934;-80
2022/01/07 05:49:09;;;;;;;;;;;-0.10;99.90;;;;;;4859353;29;19930;-83
2022/01/07 05:51:35;;;;;;;;;;;-0.10;99.90;;;;;;4660449;30;19945;-81
2022/01/07 05:59:02;;;;;;;;;;;-0.10;99.90;;;;;;5174988;27;19926;-83
2022/01/07 06:01:29;;;;;;;;;;;-0.10;99.90;;;;;;5139584;27;19922;-84
2022/01/07 06:03:56;;;;;;;;;;;-0.20;99.90;;;;;;5116481;27;19931;-84
2022/01/07 06:06:22;;;;;;;;;;;-0.10;99.90;;;;;;5098484;28;19925;-81
2022/01/07 06:08:49;;;;;;;;;;;-0.10;99.90;;;;;;4927474;28;19929;-80
2022/01/07 06:11:16;;;;;;;;;;;-0.10;99.90;;;;;;4686516;30;19956;-84
2022/01/07 06:13:42;;;;;;;;;;;-0.10;99.90;;;;;;4533463;30;19942;-82
2022/01/07 06:21:15;;;;;;;;;;;0.00;99.90;;;;;;5175394;27;19926;-84
2022/01/07 06:23:42;;;;;;;;;;;0.10;99.90;;;;;;5121669;27;19923;-81
2022/01/07 06:26:08;;;;;;;;;;;0.20;99.90;;;;;;5093952;28;19915;-81
2022/01/07 06:28:35;;;;;;;;;;;0.10;99.90;;;;;;5083100;28;19924;-82
2022/01/07 06:31:01;;;;;;;;;;;0.10;99.90;;;;;;5032622;28;19925;-81
2022/01/07 06:33:28;;;;;;;;;;;0.10;99.90;;;;;;4930909;28;19935;-80
2022/01/07 06:35:55;;;;;;;;;;;0.10;99.90;;;;;;4729220;29;19943;-79
2022/01/07 06:43:26;;;;;;;;;;;0.10;99.90;;;;;;5161353;27;19926;-79
2022/01/07 06:45:52;;;;;;;;;;;0.10;99.90;;;;;;5121657;27;19923;-82
2022/01/07 06:48:19;;;;;;;;;;;0.10;99.90;;;;;;5115197;28;19943;-81
2022/01/07 06:50:45;;;;;;;;;;;0.10;99.90;;;;;;5104630;28;19924;-82
2022/01/07 06:53:12;;;;;;;;;;;0.10;99.90;;;;;;5010294;28;19927;-83
2022/01/07 06:55:39;;;;;;;;;;;0.10;99.90;;;;;;4833340;29;19930;-81
2022/01/07 06:58:05;;;;;;;;;;;0.20;99.90;;;;;;4556841;30;19944;-84
2022/01/07 07:05:36;;;;;;;;;;;0.20;99.90;;;;;;5175034;27;19930;-82
2022/01/07 07:08:03;;;;;;;;;;;0.20;99.90;;;;;;5154424;27;19945;-83
2022/01/07 07:10:30;;;;;;;;;;;0.20;99.90;;;;;;5128580;27;19931;-82
2022/01/07 07:12:56;;;;;;;;;;;0.30;99.90;;;;;;5056430;28;19925;-83
2022/01/07 07:15:23;;;;;;;;;;;0.30;99.90;;;;;;5000686;28;19925;-83
2022/01/07 07:17:50;;;;;;;;;;;0.40;99.90;;;;;;4896926;28;19941;-80
2022/01/07 07:20:18;;;;;;;;;;;0.40;99.90;;;;;;4642165;30;19935;-83
2022/01/07 07:27:51;;;;;;;;;;;0.40;99.90;;;;;;5195940;27;19926;-81
2022/01/07 07:30:17;;;;;;;;;;;0.40;99.90;;;;;;5143677;27;19930;-82
2022/01/07 07:32:44;;;;;;;;;;;0.40;99.90;;;;;;5120515;27;19931;-80
2022/01/07 07:37:55;;;;;;;;;;;0.40;99.90;;;;;;5019234;28;19926;-81
2022/01/07 07:40:22;;;;;;;;;;;0.40;99.90;;;;;;4910334;28;19928;-82
2022/01/07 07:42:48;;;;;;;;;;;0.50;99.90;;;;;;4715407;29;19944;-80
2022/01/07 07:50:24;;;;;;;;;;;0.50;99.90;;;;;;5175074;27;19930;-82
2022/01/07 07:52:54;;;;;;;;;;;0.50;99.90;;;;;;5124616;27;19924;-81
2022/01/07 07:55:21;;;;;;;;;;;0.50;99.90;;;;;;5113492;27;19924;-82
2022/01/07 07:57:47;;;;;;;;;;;0.50;99.90;;;;;;5052703;28;19940;-84
2022/01/07 08:00:14;;;;;;;;;;;0.70;99.90;;;;;;4973780;28;19931;-82
2022/01/07 08:02:41;;;;;;;;;;;0.60;99.90;;;;;;4834739;29;19937;-83
2022/01/07 08:05:08;;;;;;;;;;;0.60;99.90;;;;;;4585201;30;19943;-82
2022/01/07 08:12:52;;;;;;;;;;;0.70;99.90;;;;;;5162465;27;19926;-84
2022/01/07 08:18:04;;;;;;;;;;;0.80;99.90;;;;;;5065113;28;19940;-81
2022/01/07 08:20:32;;;;;;;;;;;0.80;99.90;;;;;;5043813;28;19936;-82
2022/01/07 08:22:58;;;;;;;;;;;0.80;99.90;;;;;;4973173;28;19935;-84
2022/01/07 08:25:25;;;;;;;;;;;0.80;99.90;;;;;;4798484;29;19934;-84
2022/01/07 08:27:55;;;;;;;;;;;0.90;99.90;;;;;;4437724;30;19947;-81
2022/01/07 08:35:17;;;;;;;;;;;0.90;99.90;;;;;;5173824;27;19926;-82
2022/01/07 08:37:44;;;;;;;;;;;0.90;99.90;;;;;;5137808;27;19923;-81
2022/01/07 08:40:11;;;;;;;;;;;1.00;99.90;;;;;;5137528;27;19931;-81
2022/01/07 08:42:38;;;;;;;;;;;1.00;99.90;;;;;;5110529;28;19931;-79
2022/01/07 08:45:05;;;;;;;;;;;0.90;99.90;;;;;;4939874;28;19930;-80
2022/01/07 08:47:32;;;;;;;;;;;1.00;99.90;;;;;;4707818;30;19932;-79
2022/01/07 08:49:58;;;;;;;;;;;1.00;99.90;;;;;;4572378;30;19943;-80
2022/01/07 08:57:25;;;;;;;;;;;1.10;99.90;;;;;;5193858;27;20014;-81
2022/01/07 08:59:52;;;;;;;;;;;1.10;99.90;;;;;;5147596;27;19929;-83
2022/01/07 09:02:19;;;;;;;;;;;1.10;99.90;;;;;;5128893;27;19939;-82
2022/01/07 09:04:45;;;;;;;;;;;1.20;99.90;;;;;;5098550;27;19931;-84
2022/01/07 09:07:12;;;;;;;;;;;1.20;99.90;;;;;;5047122;28;19926;-82
2022/01/07 09:09:39;;;;;;;;;;;1.20;99.90;;;;;;4892015;29;19929;-83
2022/01/07 09:12:07;;;;;;;;;;;1.20;99.90;;;;;;4716086;29;19941;-82
2022/01/07 09:19:38;;;;;;;;;;;1.40;99.90;;;;;;5174747;27;19925;-82
2022/01/07 09:22:05;;;;;;;;;;;1.40;99.90;;;;;;5137995;27;19923;-81
2022/01/07 09:24:32;;;;;;;;;;;1.50;99.90;;;;;;5123855;27;19946;-84
2022/01/07 09:26:59;;;;;;;;;;;1.60;99.90;;;;;;5083608;28;19924;-82
2022/01/07 09:29:27;;;;;;;;;;;1.70;99.90;;;;;;4974915;28;19928;-82
2022/01/07 09:31:54;;;;;;;;;;;1.70;99.90;;;;;;4814735;29;19939;-82
2022/01/07 09:34:20;;;;;;;;;;;1.70;99.90;;;;;;4621336;30;19951;-81
2022/01/07 09:41:52;;;;;;;;;;;1.90;99.90;;;;;;5169395;27;19926;-81
2022/01/07 09:44:19;;;;;;;;;;;1.90;99.90;;;;;;5134851;27;19923;-81
2022/01/07 09:46:45;;;;;;;;;;;1.90;99.90;;;;;;5126421;28;19932;-82
2022/01/07 09:49:12;;;;;;;;;;;1.80;99.90;;;;;;5087782;28;19932;-81
2022/01/07 09:51:39;;;;;;;;;;;1.80;99.90;;;;;;4993116;28;19934;-81
2022/01/07 09:54:06;;;;;;;;;;;1.90;99.90;;;;;;4875367;29;19930;-81
2022/01/07 09:56:33;;;;;;;;;;;2.00;99.90;;;;;;4790060;29;19931;-83
2022/01/07 10:04:07;;;;;;;;;;;2.90;99.90;;;;;;5174126;27;19926;-82
2022/01/07 10:06:34;;;;;;;;;;;3.60;99.90;;;;;;5135726;27;19923;-80
2022/01/07 10:09:02;;;;;;;;;;;3.90;99.90;;;;;;5136800;27;19923;-83
2022/01/07 10:11:28;;;;;;;;;;;3.70;99.90;;;;;;5107998;28;19927;-82
2022/01/07 10:14:14;;;;;;;;;;;3.30;99.90;;;;;;5034350;28;19930;-82
2022/01/07 10:16:46;;;;;;;;;;;2.80;99.90;;;;;;4821179;29;20011;-81
2022/01/07 10:23:24;;;;;;;;;;;3.00;99.90;;;;;;5157005;27;20062;-81
2022/01/07 10:25:52;;;;;;;;;;;4.00;99.90;;;;;;5097156;27;19931;-80
2022/01/07 10:28:20;;;;;;;;;;;4.60;99.90;;;;;;5087181;28;19925;-82
2022/01/07 10:30:51;;;;;;;;;;;4.60;99.90;;;;;;5033670;28;19933;-81
2022/01/07 10:33:19;;;;;;;;;;;4.60;99.90;;;;;;4972802;28;19927;-82
2022/01/07 10:35:46;;;;;;;;;;;4.30;99.90;;;;;;4793717;29;19938;-82
2022/01/07 10:38:17;;;;;;;;;;;3.80;99.90;;;;;;4541978;30;19936;-82
2022/01/07 10:45:16;;;;;;;;;;;3.50;99.90;;;;;;5153406;27;19926;-83
2022/01/07 10:47:48;;;;;;;;;;;3.40;99.90;;;;;;5117055;27;19931;-81
2022/01/07 10:50:16;;;;;;;;;;;3.30;99.90;;;;;;5104553;28;20019;-80
2022/01/07 10:52:43;;;;;;;;;;;3.40;99.90;;;;;;5076478;28;19931;-80
2022/01/07 10:55:10;;;;;;;;;;;3.30;99.90;;;;;;5058842;28;19937;-80
2022/01/07 10:57:38;;;;;;;;;;;3.20;99.90;;;;;;4954320;28;19928;-81
2022/01/07 11:00:05;;;;;;;;;;;3.20;99.90;;;;;;4715985;29;19935;-81
2022/01/07 11:07:03;;;;;;;;;;;3.00;99.90;;;;;;5177142;27;19926;-80
2022/01/07 11:09:30;;;;;;;;;;;3.10;99.90;;;;;;5121367;27;19931;-80
2022/01/07 11:11:57;;;;;;;;;;;3.10;99.90;;;;;;5112844;28;19925;-80
2022/01/07 11:14:25;;;;;;;;;;;3.10;99.90;;;;;;5062120;28;19909;-79
2022/01/07 11:16:52;;;;;;;;;;;3.00;99.90;;;;;;5005529;28;19917;-80
2022/01/07 11:19:19;;;;;;;;;;;3.00;99.90;;;;;;4921653;28;19929;-83
2022/01/07 11:21:48;;;;;;;;;;;3.00;99.90;;;;;;4723556;29;19933;-81
2022/01/07 11:29:39;;;;;;;;;;;3.10;99.90;;;;;;5173731;27;19925;-82
2022/01/07 11:32:24;;;;;;;;;;;3.10;99.90;;;;;;5144817;27;19942;-82
2022/01/07 11:34:51;;;;;;;;;;;3.10;99.90;;;;;;5072167;28;19984;-83
2022/01/07 11:37:33;;;;;;;;;;;3.00;99.90;;;;;;5042399;28;19932;-81
2022/01/07 11:40:00;;;;;;;;;;;3.00;99.90;;;;;;4935377;28;19932;-84
2022/01/07 11:42:38;;;;;;;;;;;3.00;99.90;;;;;;4827942;29;19936;-82
2022/01/07 11:48:37;;;;;;;;;;;3.00;99.90;;;;;;5173651;27;19941;-81
2022/01/07 11:51:11;;;;;;;;;;;2.90;99.90;;;;;;5113547;27;19924;-83
2022/01/07 11:53:56;;;;;;;;;;;3.00;99.90;;;;;;5084211;28;19937;-80
2022/01/07 11:56:24;;;;;;;;;;;2.90;99.90;;;;;;5002418;28;19931;-82
2022/01/07 11:58:52;;;;;;;;;;;2.90;99.90;;;;;;4912549;28;19928;-82
2022/01/07 12:01:22;;;;;;;;;;;2.80;99.90;;;;;;4716954;29;19943;-82
2022/01/07 12:03:50;;;;;;;;;;;2.80;99.90;;;;;;4509639;31;19936;-84
2022/01/07 12:11:43;;;;;;;;;;;2.70;99.90;;;;;;5173759;27;19927;-82
2022/01/07 12:14:11;;;;;;;;;;;2.60;99.90;;;;;;5111366;28;19924;-81
2022/01/07 12:16:38;;;;;;;;;;;2.70;99.90;;;;;;5097450;28;19931;-85
2022/01/07 12:19:38;;;;;;;;;;;2.70;99.90;;;;;;5073508;28;20770;-85
2022/01/07 12:22:07;;;;;;;;;;;2.60;99.90;;;;;;4928696;28;19936;-81
2022/01/07 12:24:34;;;;;;;;;;;2.60;99.90;;;;;;4735168;29;19932;-82
2022/01/07 12:30:24;;;;;;;;;;;2.60;99.90;;;;;;5172896;27;19937;-84
2022/01/07 12:32:51;;;;;;;;;;;2.60;99.90;;;;;;5101687;28;19923;-82
2022/01/07 12:35:18;;;;;;;;;;;2.60;99.90;;;;;;5065764;28;19932;-82
2022/01/07 12:37:44;;;;;;;;;;;2.70;99.90;;;;;;5016687;28;19925;-81
2022/01/07 12:40:11;;;;;;;;;;;2.70;99.90;;;;;;4967009;28;19926;-83
2022/01/07 12:42:42;;;;;;;;;;;2.60;99.90;;;;;;4790463;29;19932;-81
2022/01/07 12:45:17;;;;;;;;;;;2.60;99.90;;;;;;4532138;30;19959;-82
2022/01/07 12:52:49;;;;;;;;;;;2.50;99.90;;;;;;5162806;27;19926;-80
2022/01/07 12:55:18;;;;;;;;;;;2.50;99.90;;;;;;5090426;28;19928;-81
2022/01/07 12:57:47;;;;;;;;;;;2.50;99.90;;;;;;5085461;28;19925;-80
2022/01/07 13:00:18;;;;;;;;;;;2.50;99.90;;;;;;5029603;28;19933;-80
2022/01/07 13:02:46;;;;;;;;;;;2.50;99.90;;;;;;4906399;29;19929;-81
2022/01/07 13:05:13;;;;;;;;;;;2.50;99.90;;;;;;4724608;29;19941;-86
2022/01/07 13:07:41;;;;;;;;;;;2.60;99.90;;;;;;4472522;31;19946;-80
2022/01/07 13:15:09;;;;;;;;;;;2.50;99.90;;;;;;5176280;27;19926;-84
2022/01/07 13:17:36;;;;;;;;;;;2.50;99.90;;;;;;5129162;27;19922;-81
2022/01/07 13:20:03;;;;;;;;;;;2.40;99.90;;;;;;5090628;28;19932;-80
2022/01/07 13:22:31;;;;;;;;;;;2.40;99.90;;;;;;5010583;28;19933;-81
2022/01/07 13:24:57;;;;;;;;;;;2.40;99.90;;;;;;4896203;29;19931;-81
2022/01/07 13:27:24;;;;;;;;;;;2.50;99.90;;;;;;4774438;29;19932;-85
2022/01/07 13:29:54;;;;;;;;;;;2.50;99.90;;;;;;4500513;30;19938;-84
2022/01/07 13:37:08;;;;;;;;;;;2.40;99.90;;;;;;5194231;27;19925;-85
2022/01/07 13:39:39;;;;;;;;;;;2.40;99.90;;;;;;5157321;27;19924;-78
2022/01/07 13:42:07;;;;;;;;;;;2.30;99.90;;;;;;5115478;28;19924;-80
2022/01/07 13:44:47;;;;;;;;;;;2.30;99.90;;;;;;5078218;28;19924;-84
2022/01/07 13:47:18;;;;;;;;;;;2.40;99.90;;;;;;4948250;28;19929;-83
2022/01/07 13:49:45;;;;;;;;;;;2.30;99.90;;;;;;4702869;29;19940;-80
2022/01/07 13:52:12;;;;;;;;;;;2.40;99.90;;;;;;4471199;31;19944;-80
2022/01/07 13:59:42;;;;;;;;;;;2.20;99.90;;;;;;5173507;27;19926;-81
2022/01/07 14:02:09;;;;;;;;;;;2.20;99.90;;;;;;5108102;28;19935;-84
2022/01/07 14:04:39;;;;;;;;;;;2.20;99.90;;;;;;5059390;28;19950;-82
2022/01/07 14:07:25;;;;;;;;;;;2.20;99.90;;;;;;5060937;28;19925;-84
2022/01/07 14:10:03;;;;;;;;;;;2.20;99.90;;;;;;4936037;28;19959;-85
2022/01/07 14:12:30;;;;;;;;;;;2.20;99.90;;;;;;4708794;29;19932;-86
2022/01/07 14:15:05;;;;;;;;;;;2.20;99.90;;;;;;4440065;31;19940;-86
2022/01/07 14:22:34;;;;;;;;;;;2.10;99.90;;;;;;5162997;27;19926;-85
2022/01/07 14:25:01;;;;;;;;;;;2.10;99.90;;;;;;5114271;28;19950;-84
2022/01/07 14:27:29;;;;;;;;;;;2.20;99.90;;;;;;5117324;27;19935;-84
2022/01/07 14:29:55;;;;;;;;;;;1.90;99.90;;;;;;5112384;28;19962;-84
2022/01/07 14:32:23;;;;;;;;;;;2.00;99.90;;;;;;5106498;28;19924;-85
2022/01/07 14:34:50;;;;;;;;;;;2.00;99.90;;;;;;4971352;28;19936;-84
2022/01/07 14:37:17;;;;;;;;;;;2.00;99.90;;;;;;4696045;29;19934;-81
2022/01/07 14:43:16;;;;;;;;;;;1.90;99.90;;;;;;5156217;27;19926;-85
2022/01/07 14:45:43;;;;;;;;;;;2.00;99.90;;;;;;5114470;27;19998;-82
2022/01/07 14:48:10;;;;;;;;;;;2.00;99.90;;;;;;5112088;28;19946;-85
2022/01/07 14:50:37;;;;;;;;;;;1.90;99.90;;;;;;5067160;28;19936;-81
2022/01/07 14:53:04;;;;;;;;;;;1.90;99.90;;;;;;4948648;28;19932;-84
2022/01/07 14:55:34;;;;;;;;;;;1.90;99.90;;;;;;4781059;29;19939;-85
2022/01/07 14:58:02;;;;;;;;;;;1.90;99.90;;;;;;4420970;31;19940;-84
2022/01/07 15:05:35;;;;;;;;;;;1.80;99.90;;;;;;5183707;27;19926;-80
2022/01/07 15:08:02;;;;;;;;;;;1.80;99.90;;;;;;5140555;27;19928;-79
2022/01/07 15:10:28;;;;;;;;;;;1.80;99.90;;;;;;5102988;28;19923;-84
2022/01/07 15:12:56;;;;;;;;;;;1.80;99.90;;;;;;5087224;28;19925;-81
2022/01/07 15:18:08;;;;;;;;;;;1.80;99.90;;;;;;4756499;29;19936;-83
2022/01/07 15:20:35;;;;;;;;;;;1.80;99.90;;;;;;4377841;31;19964;-82
2022/01/07 15:28:07;;;;;;;;;;;1.70;99.90;;;;;;5180439;27;19926;-83
2022/01/07 15:30:35;;;;;;;;;;;1.80;99.90;;;;;;5132314;27;19946;-82
2022/01/07 15:33:02;;;;;;;;;;;1.80;99.90;;;;;;5099020;28;19924;-86
2022/01/07 15:35:30;;;;;;;;;;;1.80;99.90;;;;;;5085697;27;19924;-84
2022/01/07 15:37:56;;;;;;;;;;;1.80;99.90;;;;;;5049369;28;19930;-83
2022/01/07 15:40:26;;;;;;;;;;;1.80;99.90;;;;;;4929379;28;19950;-83
2022/01/07 15:42:52;;;;;;;;;;;1.70;99.90;;;;;;4710370;29;19940;-83
2022/01/07 15:48:49;;;;;;;;;;;1.70;99.90;;;;;;5174285;27;19941;-81
2022/01/07 15:51:16;;;;;;;;;;;1.70;99.90;;;;;;5138990;27;19923;-83
2022/01/07 15:53:45;;;;;;;;;;;1.80;99.90;;;;;;5125684;28;19911;-79
2022/01/07 15:56:12;;;;;;;;;;;1.80;99.90;;;;;;5096616;28;19913;-79
2022/01/07 15:58:38;;;;;;;;;;;1.80;99.90;;;;;;5046991;28;19930;-81
2022/01/07 16:01:40;;;;;;;;;;;1.80;99.90;;;;;;4911858;28;19936;-83
2022/01/07 16:04:09;;;;;;;;;;;1.80;99.90;;;;;;4640007;30;19934;-81
2022/01/07 16:09:17;;;;;;;;;;;1.80;99.90;;;;;;5175205;27;19930;-83
2022/01/07 16:11:47;;;;;;;;;;;1.80;99.90;;;;;;5131826;27;19930;-82
2022/01/07 16:14:17;;;;;;;;;;;1.80;99.90;;;;;;5079197;28;19932;-83
2022/01/07 16:16:43;;;;;;;;;;;1.80;99.90;;;;;;5085874;28;19925;-82
2022/01/07 16:19:10;;;;;;;;;;;1.80;99.90;;;;;;5000077;28;19951;-85
2022/01/07 16:21:37;;;;;;;;;;;1.80;99.90;;;;;;4808539;29;19942;-83
2022/01/07 16:24:04;;;;;;;;;;;1.80;99.90;;;;;;4550958;30;19937;-82
2022/01/07 16:31:44;;;;;;;;;;;1.80;99.90;;;;;;5169465;27;19942;-81
2022/01/07 16:34:11;;;;;;;;;;;1.90;99.90;;;;;;5104884;27;19931;-81
2022/01/07 16:36:38;;;;;;;;;;;1.90;99.90;;;;;;5110616;27;19932;-82
2022/01/07 16:39:05;;;;;;;;;;;1.80;99.90;;;;;;5113991;27;19924;-83
2022/01/07 16:41:33;;;;;;;;;;;1.80;99.90;;;;;;5057718;28;19925;-81
2022/01/07 16:43:59;;;;;;;;;;;1.90;99.90;;;;;;4839579;29;19929;-82
2022/01/07 16:46:28;;;;;;;;;;;1.90;99.90;;;;;;4613984;30;20034;-81
2022/01/07 16:51:43;;;;;;;;;;;1.90;99.90;;;;;;5169773;27;19926;-82
2022/01/07 16:54:10;;;;;;;;;;;1.90;99.90;;;;;;5134095;27;19923;-80
2022/01/07 16:56:37;;;;;;;;;;;1.90;99.90;;;;;;5133510;27;19931;-82
2022/01/07 16:59:03;;;;;;;;;;;1.90;99.90;;;;;;5094776;28;19924;-82
2022/01/07 17:01:30;;;;;;;;;;;1.90;99.90;;;;;;5012086;28;19949;-85
2022/01/07 17:03:56;;;;;;;;;;;1.90;99.90;;;;;;4859871;28;19937;-83
2022/01/07 17:06:23;;;;;;;;;;;1.90;99.90;;;;;;4610588;30;19942;-79
2022/01/07 17:13:51;;;;;;;;;;;2.00;99.90;;;;;;5162810;27;19925;-79
2022/01/07 17:16:17;;;;;;;;;;;2.00;99.90;;;;;;5106471;28;19924;-79
2022/01/07 17:18:44;;;;;;;;;;;1.90;99.90;;;;;;5111843;27;19938;-81
2022/01/07 17:21:10;;;;;;;;;;;2.00;99.90;;;;;;5088401;28;19936;-80
2022/01/07 17:23:37;;;;;;;;;;;1.90;99.90;;;;;;5007703;28;19927;-81
2022/01/07 17:26:03;;;;;;;;;;;1.90;99.90;;;;;;4914635;29;19927;-82
2022/01/07 17:28:30;;;;;;;;;;;1.90;99.90;;;;;;4791383;29;19932;-81
2022/01/07 17:36:02;;;;;;;;;;;1.90;99.90;;;;;;5174341;27;19926;-82
2022/01/07 17:38:29;;;;;;;;;;;1.80;99.90;;;;;;5120869;27;19923;-79
2022/01/07 17:40:56;;;;;;;;;;;1.80;99.90;;;;;;5137377;27;19938;-81
2022/01/07 17:43:22;;;;;;;;;;;1.80;99.90;;;;;;5076021;28;19931;-81
2022/01/07 17:45:49;;;;;;;;;;;1.70;99.90;;;;;;5006963;28;19927;-79
2022/01/07 17:48:16;;;;;;;;;;;1.70;99.90;;;;;;4845107;29;19929;-82
2022/01/07 17:50:43;;;;;;;;;;;1.70;99.90;;;;;;4658867;29;19933;-82
2022/01/07 17:58:18;;;;;;;;;;;1.70;99.90;;;;;;5180377;27;19925;-81
2022/01/07 18:00:45;;;;;;;;;;;1.70;99.90;;;;;;5141931;27;19924;-80
2022/01/07 18:03:12;;;;;;;;;;;1.80;99.90;;;;;;5129797;27;19923;-81
2022/01/07 18:05:38;;;;;;;;;;;1.80;99.90;;;;;;5099166;27;19928;-82
2022/01/07 18:08:05;;;;;;;;;;;1.80;99.90;;;;;;5023110;28;19931;-83
2022/01/07 18:10:32;;;;;;;;;;;1.80;99.90;;;;;;4779798;29;19932;-83
2022/01/07 18:13:09;;;;;;;;;;;1.80;99.90;;;;;;4606072;30;19934;-81
2022/01/07 18:20:44;;;;;;;;;;;1.80;99.90;;;;;;5173898;27;19991;-84
2022/01/07 18:23:12;;;;;;;;;;;1.80;99.90;;;;;;5128915;28;19924;-82
2022/01/07 18:25:42;;;;;;;;;;;1.90;99.90;;;;;;5086280;27;19924;-81
2022/01/07 18:28:08;;;;;;;;;;;1.90;99.90;;;;;;5116490;27;19924;-81
2022/01/07 18:30:38;;;;;;;;;;;1.80;99.90;;;;;;5068868;28;19942;-84
2022/01/07 18:33:08;;;;;;;;;;;1.80;99.90;;;;;;4899027;29;19928;-80
2022/01/07 18:35:37;;;;;;;;;;;1.80;99.90;;;;;;4765189;29;19930;-81
2022/01/07 18:40:50;;;;;;;;;;;1.80;99.90;;;;;;5174115;27;19930;-83